createdAt,value
2019-05-02T00:00:13.744Z,15.80
2019-05-02T00:02:45.058Z,16.73
2019-05-02T00:05:18.307Z,15.77
2019-05-02T00:07:49.128Z,16.27
2019-05-02T00:10:24.868Z,16.30
2019-05-02T00:12:57.451Z,16.10
2019-05-02T00:15:28.260Z,16.33
2019-05-02T00:18:01.393Z,17.93
2019-05-02T00:20:37.896Z,16.40
2019-05-02T00:23:08.791Z,18.57
2019-05-02T00:25:40.676Z,17.90
2019-05-02T00:28:13.990Z,15.00
2019-05-02T00:30:50.011Z,16.97
2019-05-02T00:33:22.643Z,15.77
2019-05-02T00:35:54.736Z,16.47
2019-05-02T00:38:25.379Z,16.30
2019-05-02T00:41:01.772Z,16.60
2019-05-02T00:43:37.021Z,16.27
2019-05-02T00:46:11.234Z,16.87
2019-05-02T00:48:54.040Z,16.87
2019-05-02T00:51:26.709Z,18.53
2019-05-02T00:53:58.382Z,15.13
2019-05-02T00:56:28.981Z,17.37
2019-05-02T00:59:02.413Z,16.87
2019-05-02T01:01:51.577Z,17.77
2019-05-02T01:04:35.319Z,16.27
2019-05-02T01:07:07.750Z,16.50
2019-05-02T01:09:42.316Z,17.27
2019-05-02T01:12:25.176Z,17.70
2019-05-02T01:14:45.669Z,17.30
2019-05-02T01:17:16.467Z,16.47
2019-05-02T01:19:53.300Z,15.67
2019-05-02T01:22:24.089Z,16.40
2019-05-02T01:24:55.937Z,17.60
2019-05-02T01:27:35.943Z,16.27
2019-05-02T01:30:28.485Z,16.20
2019-05-02T01:33:18.215Z,17.20
2019-05-02T01:36:24.327Z,16.60
2019-05-02T01:38:55.410Z,16.03
2019-05-02T01:41:29.360Z,15.20
2019-05-02T01:44:01.504Z,18.50
2019-05-02T01:46:32.367Z,17.57
2019-05-02T01:49:05.556Z,17.80
2019-05-02T01:51:47.781Z,16.87
2019-05-02T01:54:17.843Z,17.40
2019-05-02T01:56:49.681Z,17.30
2019-05-02T01:59:21.717Z,17.70
2019-05-02T02:01:58.024Z,17.07
2019-05-02T02:04:28.123Z,16.70
2019-05-02T02:07:00.056Z,17.03
2019-05-02T02:09:30.737Z,16.60
2019-05-02T02:12:04.896Z,16.90
2019-05-02T02:14:34.255Z,17.77
2019-05-02T02:17:04.957Z,17.20
2019-05-02T02:19:48.024Z,16.20
2019-05-02T02:22:39.150Z,16.87
2019-05-02T02:25:48.204Z,17.00
2019-05-02T02:28:18.765Z,17.83
2019-05-02T02:30:49.560Z,17.63
2019-05-02T02:33:24.377Z,17.63
2019-05-02T02:35:55.442Z,18.10
2019-05-02T02:38:32.894Z,16.30
2019-05-02T02:41:13.224Z,17.60
2019-05-02T02:43:39.937Z,18.80
2019-05-02T02:46:37.879Z,18.93
2019-05-02T02:49:14.229Z,16.90
2019-05-02T02:51:41.745Z,17.40
2019-05-02T02:54:13.646Z,17.77
2019-05-02T02:56:44.475Z,18.50
2019-05-02T02:59:19.378Z,17.30
2019-05-02T03:01:51.229Z,17.00
2019-05-02T03:04:23.138Z,17.57
2019-05-02T03:06:54.809Z,17.93
2019-05-02T03:09:28.942Z,18.20
2019-05-02T03:12:18.173Z,18.77
2019-05-02T03:14:53.749Z,18.70
2019-05-02T03:17:28.696Z,18.33
2019-05-02T03:20:01.826Z,18.33
2019-05-02T03:22:35.009Z,18.63
2019-05-02T03:25:06.780Z,18.40
2019-05-02T03:27:40.503Z,18.97
2019-05-02T03:30:29.230Z,16.30
2019-05-02T03:33:03.606Z,19.83
2019-05-02T03:35:40.198Z,16.50
2019-05-02T03:37:59.182Z,19.37
2019-05-02T03:40:38.934Z,19.63
2019-05-02T03:43:11.545Z,19.63
2019-05-02T03:45:43.297Z,20.83
2019-05-02T03:48:18.320Z,19.33
2019-05-02T03:50:49.783Z,20.07
2019-05-02T03:53:25.957Z,20.57
2019-05-02T03:56:10.835Z,20.37
2019-05-02T03:58:32.699Z,17.20
2019-05-02T04:01:04.006Z,20.87
2019-05-02T04:03:41.161Z,19.40
2019-05-02T04:06:14.049Z,20.50
2019-05-02T04:08:45.537Z,20.00
2019-05-02T04:11:37.961Z,18.80
2019-05-02T04:13:59.657Z,19.00
2019-05-02T04:16:32.590Z,20.40
2019-05-02T04:19:07.523Z,19.77
2019-05-02T04:21:39.707Z,18.57
2019-05-02T04:24:15.673Z,18.57
2019-05-02T04:26:53.529Z,19.50
2019-05-02T04:29:24.513Z,21.27
2019-05-02T04:31:51.888Z,19.90
2019-05-02T04:34:23.774Z,19.40
2019-05-02T04:37:01.554Z,20.30
2019-05-02T04:39:28.637Z,22.27
2019-05-02T04:42:05.503Z,21.20
2019-05-02T04:44:40.875Z,19.50
2019-05-02T04:47:17.104Z,21.97
2019-05-02T04:49:41.329Z,23.73
2019-05-02T04:52:16.607Z,22.00
2019-05-02T04:54:48.794Z,22.97
2019-05-02T04:57:19.335Z,21.30
2019-05-02T05:00:05.004Z,21.30
2019-05-02T05:02:34.175Z,22.20
2019-05-02T05:04:58.112Z,22.20
2019-05-02T05:07:31.049Z,22.83
2019-05-02T05:10:03.357Z,22.37
2019-05-02T05:12:38.049Z,21.57
2019-05-02T05:15:13.380Z,22.27
2019-05-02T05:17:42.431Z,23.43
2019-05-02T05:20:15.786Z,25.00
2019-05-02T05:22:48.001Z,25.47
2019-05-02T05:25:28.682Z,25.13
2019-05-02T05:28:05.655Z,24.40
2019-05-02T05:30:31.999Z,26.40
2019-05-02T05:33:03.648Z,24.90
2019-05-02T05:35:38.409Z,24.70
2019-05-02T05:38:08.752Z,25.93
2019-05-02T05:40:39.387Z,24.37
2019-05-02T05:43:14.389Z,24.97
2019-05-02T05:45:56.401Z,24.43
2019-05-02T05:48:32.153Z,25.60
2019-05-02T05:51:04.225Z,27.17
2019-05-02T05:53:34.845Z,24.30
2019-05-02T05:56:07.782Z,23.70
2019-05-02T05:58:39.799Z,25.27
2019-05-02T06:01:10.782Z,27.13
2019-05-02T06:03:44.976Z,27.43
2019-05-02T06:06:22.774Z,25.40
2019-05-02T06:08:54.147Z,26.03
2019-05-02T06:11:22.696Z,23.87
2019-05-02T06:13:54.663Z,24.47
2019-05-02T06:16:25.415Z,24.87
2019-05-02T06:18:56.225Z,23.70
2019-05-02T06:21:32.098Z,24.43
2019-05-02T06:24:03.028Z,22.90
2019-05-02T06:26:33.664Z,26.83
2019-05-02T06:29:07.686Z,24.90
2019-05-02T06:31:42.980Z,26.00
2019-05-02T06:34:14.665Z,27.73
2019-05-02T06:36:44.409Z,29.33
2019-05-02T06:39:15.462Z,26.50
2019-05-02T06:41:46.399Z,24.47
2019-05-02T06:44:23.214Z,26.23
2019-05-02T06:46:50.627Z,25.93
2019-05-02T06:49:27.484Z,27.10
2019-05-02T06:51:58.202Z,26.47
2019-05-02T06:54:30.342Z,25.43
2019-05-02T06:57:03.053Z,27.40
2019-05-02T06:59:39.853Z,25.33
2019-05-02T07:02:10.619Z,26.97
2019-05-02T07:04:41.397Z,29.70
2019-05-02T07:07:15.904Z,28.30
2019-05-02T07:09:46.987Z,29.30
2019-05-02T07:12:17.880Z,27.83
2019-05-02T07:14:48.788Z,30.13
2019-05-02T07:17:39.937Z,27.77
2019-05-02T07:20:12.242Z,28.40
2019-05-02T07:22:45.439Z,29.70
2019-05-02T07:25:18.568Z,29.40
2019-05-02T07:27:49.463Z,29.30
2019-05-02T07:30:20.754Z,31.50
2019-05-02T07:32:51.335Z,30.43
2019-05-02T07:35:24.397Z,30.63
2019-05-02T07:37:56.994Z,31.23
2019-05-02T07:40:28.947Z,29.40
2019-05-02T07:43:00.838Z,36.00
2019-05-02T07:45:32.485Z,36.73
2019-05-02T07:48:04.474Z,53.57
2019-05-02T07:50:35.150Z,37.93
2019-05-02T07:53:09.587Z,35.33
2019-05-02T07:55:40.588Z,35.20
2019-05-02T07:58:20.804Z,33.00
2019-05-02T08:00:51.601Z,36.83
2019-05-02T08:03:23.473Z,36.70
2019-05-02T08:05:58.558Z,35.20
2019-05-02T08:08:31.888Z,36.07
2019-05-02T08:11:03.905Z,36.00
2019-05-02T08:13:34.703Z,39.87
2019-05-02T08:16:05.540Z,34.00
2019-05-02T08:18:36.159Z,38.20
2019-05-02T08:21:08.114Z,35.63
2019-05-02T08:23:38.666Z,36.00
2019-05-02T08:26:09.693Z,34.03
2019-05-02T08:28:53.286Z,33.97
2019-05-02T08:31:25.004Z,32.87
2019-05-02T08:33:56.910Z,35.60
2019-05-02T08:36:27.705Z,33.23
2019-05-02T08:38:58.427Z,31.87
2019-05-02T08:41:30.399Z,31.70
2019-05-02T08:44:01.104Z,30.53
2019-05-02T08:46:31.853Z,30.80
2019-05-02T08:49:02.538Z,30.10
2019-05-02T08:51:33.424Z,29.77
2019-05-02T08:54:04.177Z,28.40
2019-05-02T08:56:35.048Z,26.90
2019-05-02T08:59:05.901Z,25.43
2019-05-02T09:01:37.953Z,23.07
2019-05-02T09:04:09.778Z,22.83
2019-05-02T09:06:47.658Z,24.43
2019-05-02T09:09:22.809Z,21.30
2019-05-02T09:12:04.826Z,24.90
2019-05-02T09:14:27.540Z,22.90
2019-05-02T09:17:06.063Z,23.60
2019-05-02T09:19:34.997Z,24.50
2019-05-02T09:22:07.491Z,22.27
2019-05-02T09:24:38.259Z,20.17
2019-05-02T09:27:12.091Z,22.10
2019-05-02T09:29:45.888Z,21.30
2019-05-02T09:32:17.059Z,21.90
2019-05-02T09:34:51.707Z,19.80
2019-05-02T09:37:28.357Z,21.20
2019-05-02T09:40:02.234Z,22.57
2019-05-02T09:42:36.008Z,20.47
2019-05-02T09:45:22.719Z,22.03
2019-05-02T09:48:01.579Z,22.33
2019-05-02T09:50:42.267Z,21.77
2019-05-02T09:53:20.878Z,22.10
2019-05-02T09:55:50.283Z,21.43
2019-05-02T09:58:21.395Z,22.80
2019-05-02T10:01:11.913Z,23.97
2019-05-02T10:03:42.983Z,25.20
2019-05-02T10:06:36.500Z,24.00
2019-05-02T10:08:49.274Z,22.70
2019-05-02T10:11:22.471Z,23.60
2019-05-02T10:13:55.483Z,21.70
2019-05-02T10:16:28.473Z,21.60
2019-05-02T10:19:08.911Z,22.80
2019-05-02T10:21:32.756Z,21.90
2019-05-02T10:24:04.263Z,20.90
2019-05-02T10:26:37.939Z,22.87
2019-05-02T10:29:08.771Z,24.40
2019-05-02T10:31:45.515Z,23.03
2019-05-02T10:34:17.831Z,21.90
2019-05-02T10:36:54.283Z,27.20
2019-05-02T10:39:23.410Z,22.90
2019-05-02T10:41:57.447Z,22.40
2019-05-02T10:44:32.597Z,23.93
2019-05-02T10:47:02.904Z,20.37
2019-05-02T10:49:40.124Z,21.90
2019-05-02T10:52:12.203Z,21.80
2019-05-02T10:54:44.275Z,24.13
2019-05-02T10:57:16.228Z,22.80
2019-05-02T10:59:56.120Z,24.93
2019-05-02T11:02:45.211Z,21.43
2019-05-02T11:05:22.574Z,23.93
2019-05-02T11:07:52.322Z,23.43
2019-05-02T11:10:28.174Z,23.83
2019-05-02T11:13:23.911Z,22.20
2019-05-02T11:16:23.106Z,22.50
2019-05-02T11:19:13.252Z,19.70
2019-05-02T11:21:55.436Z,24.60
2019-05-02T11:24:17.870Z,21.67
2019-05-02T11:26:48.604Z,27.22
2019-05-02T11:29:19.147Z,22.10
2019-05-02T11:31:53.163Z,22.70
2019-05-02T11:34:24.134Z,22.30
2019-05-02T11:36:55.018Z,21.00
2019-05-02T11:39:33.511Z,20.97
2019-05-02T11:42:02.131Z,22.33
2019-05-02T11:44:47.770Z,24.27
2019-05-02T11:47:26.679Z,19.90
2019-05-02T11:50:06.858Z,21.17
2019-05-02T11:52:39.546Z,21.37
2019-05-02T11:55:12.954Z,20.10
2019-05-02T11:57:52.348Z,19.67
2019-05-02T12:00:27.601Z,18.47
2019-05-02T12:03:16.030Z,21.43
2019-05-02T12:06:02.073Z,19.33
2019-05-02T12:08:45.120Z,19.53
2019-05-02T12:11:22.851Z,18.37
2019-05-02T12:13:57.050Z,16.50
2019-05-02T12:16:37.998Z,14.70
2019-05-02T12:19:17.627Z,12.23
2019-05-02T12:22:07.114Z,11.43
2019-05-02T12:24:46.562Z,11.80
2019-05-02T12:27:26.696Z,10.40
2019-05-02T12:29:59.378Z,10.23
2019-05-02T12:32:30.753Z,9.67
2019-05-02T12:35:02.561Z,11.27
2019-05-02T12:37:34.513Z,12.33
2019-05-02T12:40:08.078Z,10.80
2019-05-02T12:42:41.864Z,10.93
2019-05-02T12:45:22.029Z,12.43
2019-05-02T12:47:55.914Z,13.37
2019-05-02T12:50:32.293Z,12.93
2019-05-02T12:53:12.400Z,14.77
2019-05-02T12:55:50.061Z,15.70
2019-05-02T12:58:21.885Z,13.30
2019-05-02T13:00:58.810Z,11.53
2019-05-02T13:03:58.960Z,11.90
2019-05-02T13:06:37.069Z,14.37
2019-05-02T13:09:13.364Z,13.23
2019-05-02T13:12:07.557Z,13.30
2019-05-02T13:14:44.057Z,12.53
2019-05-02T13:17:16.283Z,71.63
2019-05-02T13:19:55.810Z,13.43
2019-05-02T13:22:47.224Z,13.27
2019-05-02T13:25:32.785Z,14.17
2019-05-02T13:28:03.899Z,14.03
2019-05-02T13:30:51.783Z,12.57
2019-05-02T13:33:35.812Z,13.60
2019-05-02T13:36:06.735Z,10.97
2019-05-02T13:38:43.524Z,11.00
2019-05-02T13:41:15.586Z,10.70
2019-05-02T13:43:48.331Z,9.93
2019-05-02T13:46:22.349Z,9.13
2019-05-02T13:48:53.379Z,11.10
2019-05-02T13:51:25.289Z,10.70
2019-05-02T13:54:02.246Z,10.67
2019-05-02T13:56:52.421Z,10.37
2019-05-02T13:59:23.226Z,11.50
2019-05-02T14:02:02.792Z,10.90
2019-05-02T14:04:34.287Z,10.43
2019-05-02T14:07:07.571Z,10.40
2019-05-02T14:09:44.160Z,9.77
2019-05-02T14:12:42.971Z,9.77
2019-05-02T14:15:15.212Z,8.87
2019-05-02T14:17:47.161Z,9.43
2019-05-02T14:20:22.569Z,10.10
2019-05-02T14:22:53.568Z,9.57
2019-05-02T14:25:24.417Z,10.30
2019-05-02T14:27:55.757Z,10.73
2019-05-02T14:30:37.294Z,9.87
2019-05-02T14:33:13.788Z,11.27
2019-05-02T14:35:46.662Z,9.70
2019-05-02T14:38:17.574Z,13.20
2019-05-02T14:41:14.300Z,11.57
2019-05-02T14:43:55.918Z,12.50
2019-05-02T14:46:35.530Z,10.87
2019-05-02T14:49:02.948Z,12.30
2019-05-02T14:51:37.246Z,11.53
2019-05-02T14:54:08.955Z,14.00
2019-05-02T14:57:02.102Z,13.40
2019-05-02T14:59:34.116Z,15.07
2019-05-02T15:02:09.048Z,13.87
2019-05-02T15:04:46.328Z,15.83
2019-05-02T15:07:13.008Z,14.40
2019-05-02T15:09:43.923Z,14.20
2019-05-02T15:12:18.874Z,14.10
2019-05-02T15:14:49.739Z,13.40
2019-05-02T15:17:22.722Z,13.57
2019-05-02T15:19:54.615Z,13.57
2019-05-02T15:22:31.842Z,13.47
2019-05-02T15:25:02.680Z,14.00
2019-05-02T15:27:41.921Z,12.50
2019-05-02T15:30:12.445Z,13.57
2019-05-02T15:32:58.981Z,13.23
2019-05-02T15:35:42.592Z,11.53
2019-05-02T15:38:20.843Z,9.13
2019-05-02T15:40:50.470Z,9.70
2019-05-02T15:43:19.618Z,9.07
2019-05-02T15:45:52.665Z,7.90
2019-05-02T15:48:27.516Z,8.57
2019-05-02T15:51:05.030Z,7.80
2019-05-02T15:53:48.259Z,8.40
2019-05-02T15:56:20.056Z,6.30
2019-05-02T15:58:52.394Z,6.37
2019-05-02T16:01:52.465Z,6.70
2019-05-02T16:04:29.392Z,6.57
2019-05-02T16:07:06.967Z,5.90
2019-05-02T16:09:33.700Z,6.93
2019-05-02T16:12:06.236Z,6.17
2019-05-02T16:14:37.254Z,6.20
2019-05-02T16:17:09.358Z,6.23
2019-05-02T16:19:45.238Z,5.80
2019-05-02T16:22:19.917Z,7.57
2019-05-02T16:24:51.449Z,5.70
2019-05-02T16:27:44.269Z,7.57
2019-05-02T16:30:22.394Z,5.60
2019-05-02T16:33:02.482Z,8.43
2019-05-02T16:35:34.184Z,8.30
2019-05-02T16:38:09.135Z,6.87
2019-05-02T16:40:41.890Z,7.87
2019-05-02T16:43:19.731Z,6.50
2019-05-02T16:45:52.567Z,6.47
2019-05-02T16:48:25.354Z,5.93
2019-05-02T16:50:56.318Z,6.83
2019-05-02T16:53:27.194Z,6.20
2019-05-02T16:56:05.474Z,7.60
2019-05-02T16:58:37.997Z,6.80
2019-05-02T17:01:06.637Z,6.30
2019-05-02T17:03:37.442Z,4.63
2019-05-02T17:06:08.179Z,7.40
2019-05-02T17:08:58.514Z,6.67
2019-05-02T17:11:37.085Z,6.77
2019-05-02T17:14:13.559Z,8.30
2019-05-02T17:16:52.354Z,7.30
2019-05-02T17:19:31.382Z,8.20
2019-05-02T17:22:02.472Z,7.77
2019-05-02T17:24:32.860Z,7.60
2019-05-02T17:27:07.205Z,8.30
2019-05-02T17:29:44.185Z,8.40
2019-05-02T17:32:16.675Z,8.20
2019-05-02T17:34:47.761Z,9.07
2019-05-02T17:37:24.512Z,9.77
2019-05-02T17:39:56.570Z,8.87
2019-05-02T17:42:27.227Z,8.97
2019-05-02T17:45:01.708Z,9.40
2019-05-02T17:47:35.581Z,9.87
2019-05-02T17:50:15.596Z,10.43
2019-05-02T17:52:45.639Z,8.20
2019-05-02T17:55:18.663Z,9.30
2019-05-02T17:57:51.631Z,9.43
2019-05-02T18:00:30.611Z,9.80
2019-05-02T18:03:02.606Z,9.17
2019-05-02T18:05:35.787Z,9.57
2019-05-02T18:08:10.717Z,9.67
2019-05-02T18:10:41.901Z,11.20
2019-05-02T18:13:12.985Z,9.67
2019-05-02T18:15:46.961Z,9.90
2019-05-02T18:18:18.927Z,9.63
2019-05-02T18:20:52.724Z,21.50
2019-05-02T18:23:27.628Z,13.17
2019-05-02T18:26:04.432Z,11.37
2019-05-02T18:28:31.777Z,11.90
2019-05-02T18:31:05.721Z,11.47
2019-05-02T18:33:40.965Z,12.73
2019-05-02T18:36:09.725Z,13.73
2019-05-02T18:38:41.718Z,12.73
2019-05-02T18:41:14.045Z,13.63
2019-05-02T18:43:45.907Z,13.87
2019-05-02T18:46:19.944Z,13.40
2019-05-02T18:48:51.870Z,13.30
2019-05-02T18:51:23.070Z,12.13
2019-05-02T18:53:57.860Z,11.70
2019-05-02T18:56:35.601Z,10.27
2019-05-02T18:59:06.115Z,10.17
2019-05-02T19:01:38.352Z,9.20
2019-05-02T19:04:13.271Z,7.80
2019-05-02T19:06:48.404Z,6.33
2019-05-02T19:09:30.454Z,6.10
2019-05-02T19:12:05.908Z,6.13
2019-05-02T19:14:43.702Z,5.20
2019-05-02T19:17:26.685Z,6.40
2019-05-02T19:19:58.507Z,5.90
2019-05-02T19:22:32.203Z,6.30
2019-05-02T19:25:04.462Z,9.83
2019-05-02T19:28:04.409Z,5.60
2019-05-02T19:30:51.966Z,5.50
2019-05-02T19:33:25.877Z,5.10
2019-05-02T19:35:56.568Z,4.57
2019-05-02T19:38:27.324Z,4.37
2019-05-02T19:41:18.786Z,4.30
2019-05-02T19:44:02.337Z,4.30
2019-05-02T19:46:38.611Z,4.40
2019-05-02T19:49:16.287Z,3.70
2019-05-02T19:51:56.324Z,3.77
2019-05-02T19:54:33.542Z,3.90
2019-05-02T19:56:59.761Z,3.87
2019-05-02T19:59:32.172Z,3.70
2019-05-02T20:02:11.891Z,3.50
2019-05-02T20:04:58.227Z,4.00
2019-05-02T20:07:35.976Z,3.30
2019-05-02T20:10:07.032Z,3.80
2019-05-02T20:12:40.904Z,3.33
2019-05-02T20:15:17.021Z,3.40
2019-05-02T20:17:55.338Z,3.77
2019-05-02T20:21:23.156Z,4.00
2019-05-02T20:23:55.292Z,3.93
2019-05-02T20:26:35.484Z,3.60
2019-05-02T20:29:12.382Z,4.00
2019-05-02T20:31:45.131Z,3.20
2019-05-02T20:34:17.892Z,3.80
2019-05-02T20:36:51.817Z,3.53
2019-05-02T20:39:27.119Z,3.33
2019-05-02T20:42:19.863Z,3.50
2019-05-02T20:44:52.795Z,3.23
2019-05-02T20:47:27.244Z,3.17
2019-05-02T20:49:59.180Z,3.23
2019-05-02T20:52:29.875Z,3.60
2019-05-02T20:55:05.032Z,3.70
2019-05-02T20:57:59.099Z,3.57
2019-05-02T21:00:48.102Z,3.53
2019-05-02T21:03:19.938Z,3.47
2019-05-02T21:06:37.548Z,3.60
2019-05-02T21:09:24.236Z,4.20
2019-05-02T21:12:02.047Z,3.20
2019-05-02T21:14:34.129Z,3.90
2019-05-02T21:17:06.238Z,4.47
2019-05-02T21:19:38.142Z,3.90
2019-05-02T21:22:24.175Z,3.90
2019-05-02T21:24:55.114Z,4.50
2019-05-02T21:27:25.972Z,3.70
2019-05-02T21:30:06.645Z,4.00
2019-05-02T21:32:40.379Z,4.17
2019-05-02T21:35:14.871Z,3.90
2019-05-02T21:37:55.911Z,3.30
2019-05-02T21:40:26.585Z,4.07
2019-05-02T21:43:02.458Z,3.13
2019-05-02T21:45:36.646Z,3.63
2019-05-02T21:48:07.275Z,3.53
2019-05-02T21:50:52.436Z,3.47
2019-05-02T21:53:55.001Z,3.63
2019-05-02T21:56:26.638Z,3.13
2019-05-02T21:59:07.366Z,3.40
2019-05-02T22:01:47.226Z,3.13
2019-05-02T22:04:18.282Z,3.70
2019-05-02T22:06:52.244Z,3.97
2019-05-02T22:09:24.503Z,3.00
2019-05-02T22:11:55.292Z,3.63
2019-05-02T22:14:27.150Z,7.87
2019-05-02T22:16:58.773Z,3.10
2019-05-02T22:19:29.509Z,2.80
2019-05-02T22:22:02.332Z,3.40
2019-05-02T22:24:33.110Z,3.00
2019-05-02T22:27:05.499Z,3.37
2019-05-02T22:29:43.011Z,3.70
2019-05-02T22:32:22.622Z,4.07
2019-05-02T22:35:01.862Z,3.70
2019-05-02T22:37:32.983Z,4.23
2019-05-02T22:40:07.492Z,3.80
2019-05-02T22:42:47.690Z,3.50
2019-05-02T22:45:24.328Z,3.30
2019-05-02T22:48:02.629Z,3.30
2019-05-02T22:50:38.499Z,3.73
2019-05-02T22:53:12.023Z,3.60
2019-05-02T22:55:42.591Z,3.33
2019-05-02T22:58:21.785Z,3.17
2019-05-02T23:00:52.526Z,3.97
2019-05-02T23:03:24.212Z,3.83
2019-05-02T23:05:54.841Z,4.43
2019-05-02T23:08:26.734Z,3.77
2019-05-02T23:11:05.533Z,4.50
2019-05-02T23:13:56.834Z,3.80
2019-05-02T23:16:27.705Z,4.30
2019-05-02T23:19:02.790Z,3.57
2019-05-02T23:21:42.375Z,3.70
2019-05-02T23:24:36.384Z,4.33
2019-05-02T23:27:17.237Z,4.20
2019-05-02T23:29:51.954Z,4.47
2019-05-02T23:32:23.950Z,4.00
2019-05-02T23:34:54.675Z,4.30
2019-05-02T23:37:32.632Z,4.77
2019-05-02T23:40:19.326Z,4.57
2019-05-02T23:42:52.430Z,4.30
2019-05-02T23:45:27.220Z,4.67
2019-05-02T23:48:05.119Z,4.00
2019-05-02T23:50:36.903Z,3.80
2019-05-02T23:53:07.519Z,3.83
2019-05-02T23:55:43.409Z,3.80
2019-05-02T23:58:14.082Z,3.70
